首页
METAR-TAF:

METAR-TAF

机场 :

Redding Municipal Airport

雷丁, 加利福尼亚州, 美国

纬度: 40-30-54N, 经度: 122-17-48W, 海拔: 153米

当前天气观测

该预报发布于1小时和0分钟前的22:53 UTC
风速8节,风向
温度 39°C
湿度 18%
气压 1012 hPa
能見度: 16.1公里
天空无云

METAR: KRDD 152253Z 18008KT 10SM CLR 39/10 A2987 RMK AO2 SLP107 T03890100

时间: 16:53 (23:53 UTC)

预报

该预报发布于33分钟前的23:20 UTC
预报有效从16日的 00点(UTC)到 16日的 24点(UTC)
风速11节,风向
能見度: 10公里
天空无云
从 16日的 0600点(UTC)
风速4节,风向多变
能見度: 10公里
天空无云
从 16日的 1900点(UTC)
风速11节,风向
能見度: 10公里
天空无云

TAF: KRDD 152320Z 1600/1624 17011KT P6SM SKC FM160600 VRB04KT P6SM SKC FM161900 17011KT P6SM SKC

超过4000个机场的气象观测和天气预报(METAR&TAF报告)。

可查询的气象台以黄色和红色小点在地图上表示。

将鼠标移到小点上方,可查看气象台名称。

然后点击查看天气观测和预报。

如需切换地图:点击带黑十字的绿色按钮放大地图;点击带横线的绿色按钮缩小地图;或者点击绿色箭头查看邻近地区的地图。


METAR-TAF: